Nesenie raksti

Ziņas

Par Gliding.lv

Gliding.lv ir interneta vietne par planieriem un planierismu. Šeit būs atrodama informācija par iespējām pamēģināt, iesaistīties un organizēt planierisma aktivitātes. Izmanto Gliding.lv forumu, ja Tev ir kāda tēma diskusijai vai jautājums. Gliding.lv merķis ir informēt un apvienot planierisma interesentus, nodrošinot un apmainoties ar aktuālāko un arī bijušo. Lidojam!

METAR

EVRA 312050Z 02006KT CAVOK 13/02 Q1023 NOSIG

EVLA 312050Z AUTO 01003KT 340V040 9999 NCD 11/06 Q1024

EVVA 312050Z AUTO 01008KT CAVOK 11/09 Q1025

Nesenie raksti

Pāriet uz rīkjoslu